sensor_id;sensor_type;location;lat;lon;timestamp;pressure;altitude;pressure_sealevel;temperature;humidity
9935;BME280;5006;41.828;23.478;2023-04-25T00:00:36;89666.94;;;14.47;100.00
9935;BME280;5006;41.828;23.478;2023-04-25T00:01:43;89663.63;;;14.55;100.00
9935;BME280;5006;41.828;23.478;2023-04-25T00:02:48;89669.66;;;14.31;100.00
9935;BME280;5006;41.828;23.478;2023-04-25T00:03:54;89671.25;;;14.28;100.00
9935;BME280;5006;41.828;23.478;2023-04-25T00:04:58;89668.97;;;14.27;100.00
9935;BME280;5006;41.828;23.478;2023-04-25T00:06:06;89664.94;;;14.03;100.00
9935;BME280;5006;41.828;23.478;2023-04-25T00:07:12;89657.94;;;14.37;100.00
9935;BME280;5006;41.828;23.478;2023-04-25T00:08:19;89653.81;;;14.61;100.00
9935;BME280;5006;41.828;23.478;2023-04-25T00:09:24;89655.31;;;14.78;100.00
9935;BME280;5006;41.828;23.478;2023-04-25T00:10:31;89661.00;;;14.52;100.00
9935;BME280;5006;41.828;23.478;2023-04-25T00:11:36;89650.28;;;14.64;100.00
9935;BME280;5006;41.828;23.478;2023-04-25T00:12:43;89646.72;;;15.08;100.00
9935;BME280;5006;41.828;23.478;2023-04-25T00:13:48;89648.31;;;14.93;100.00
9935;BME280;5006;41.828;23.478;2023-04-25T00:14:55;89644.06;;;14.80;100.00
9935;BME280;5006;41.828;23.478;2023-04-25T00:16:03;89648.38;;;14.49;100.00
9935;BME280;5006;41.828;23.478;2023-04-25T00:17:10;89646.22;;;14.28;100.00
9935;BME280;5006;41.828;23.478;2023-04-25T00:18:16;89648.91;;;14.12;100.00
9935;BME280;5006;41.828;23.478;2023-04-25T00:19:22;89650.84;;;14.43;100.00
9935;BME280;5006;41.828;23.478;2023-04-25T00:20:27;89645.53;;;14.40;100.00
9935;BME280;5006;41.828;23.478;2023-04-25T00:21:33;89646.28;;;14.40;100.00
9935;BME280;5006;41.828;23.478;2023-04-25T00:22:37;89646.78;;;14.51;100.00
9935;BME280;5006;41.828;23.478;2023-04-25T00:23:45;89652.44;;;14.41;100.00
9935;BME280;5006;41.828;23.478;2023-04-25T00:24:51;89645.22;;;14.66;100.00
9935;BME280;5006;41.828;23.478;2023-04-25T00:25:57;89640.91;;;14.69;100.00
9935;BME280;5006;41.828;23.478;2023-04-25T00:27:03;89637.75;;;14.99;100.00
9935;BME280;5006;41.828;23.478;2023-04-25T00:28:09;89639.50;;;14.64;100.00
9935;BME280;5006;41.828;23.478;2023-04-25T00:29:13;89641.44;;;14.19;100.00
9935;BME280;5006;41.828;23.478;2023-04-25T00:30:19;89644.31;;;14.57;100.00
9935;BME280;5006;41.828;23.478;2023-04-25T00:31:25;89638.41;;;14.74;100.00
9935;BME280;5006;41.828;23.478;2023-04-25T00:32:31;89647.16;;;14.37;100.00
9935;BME280;5006;41.828;23.478;2023-04-25T00:33:35;89649.09;;;14.65;100.00
9935;BME280;5006;41.828;23.478;2023-04-25T00:34:42;89648.78;;;14.47;100.00
9935;BME280;5006;41.828;23.478;2023-04-25T00:35:46;89642.34;;;13.65;100.00
9935;BME280;5006;41.828;23.478;2023-04-25T00:36:53;89648.31;;;13.56;100.00
9935;BME280;5006;41.828;23.478;2023-04-25T00:37:59;89639.91;;;13.54;100.00
9935;BME280;5006;41.828;23.478;2023-04-25T00:39:07;89635.03;;;13.65;100.00
9935;BME280;5006;41.828;23.478;2023-04-25T00:40:12;89643.28;;;13.90;100.00
9935;BME280;5006;41.828;23.478;2023-04-25T00:41:19;89633.78;;;13.86;100.00
9935;BME280;5006;41.828;23.478;2023-04-25T00:42:25;89637.53;;;14.65;100.00
9935;BME280;5006;41.828;23.478;2023-04-25T00:43:32;89640.41;;;14.86;100.00
9935;BME280;5006;41.828;23.478;2023-04-25T00:44:39;89637.06;;;14.82;100.00
9935;BME280;5006;41.828;23.478;2023-04-25T00:45:47;89633.00;;;14.62;100.00
9935;BME280;5006;41.828;23.478;2023-04-25T00:46:52;89636.53;;;14.30;100.00
9935;BME280;5006;41.828;23.478;2023-04-25T00:47:59;89629.66;;;13.65;100.00
9935;BME280;5006;41.828;23.478;2023-04-25T00:49:04;89634.44;;;14.22;100.00
9935;BME280;5006;41.828;23.478;2023-04-25T00:50:13;89624.75;;;14.53;100.00
9935;BME280;5006;41.828;23.478;2023-04-25T00:51:20;89617.31;;;14.28;100.00
9935;BME280;5006;41.828;23.478;2023-04-25T00:52:27;89619.75;;;14.80;100.00
9935;BME280;5006;41.828;23.478;2023-04-25T00:53:33;89619.09;;;14.63;100.00
9935;BME280;5006;41.828;23.478;2023-04-25T00:54:40;89619.19;;;14.72;100.00
9935;BME280;5006;41.828;23.478;2023-04-25T00:55:46;89618.06;;;14.45;100.00
9935;BME280;5006;41.828;23.478;2023-04-25T00:56:52;89615.13;;;14.07;100.00
9935;BME280;5006;41.828;23.478;2023-04-25T00:57:57;89610.75;;;14.29;100.00
9935;BME280;5006;41.828;23.478;2023-04-25T00:59:03;89623.66;;;14.79;100.00
9935;BME280;5006;41.828;23.478;2023-04-25T01:00:09;89615.31;;;14.00;100.00
9935;BME280;5006;41.828;23.478;2023-04-25T01:01:17;89622.31;;;13.50;100.00
9935;BME280;5006;41.828;23.478;2023-04-25T01:02:23;89626.84;;;13.53;100.00
9935;BME280;5006;41.828;23.478;2023-04-25T01:03:31;89610.88;;;13.78;100.00
9935;BME280;5006;41.828;23.478;2023-04-25T01:04:36;89608.00;;;13.85;100.00
9935;BME280;5006;41.828;23.478;2023-04-25T01:05:43;89607.91;;;13.56;100.00
9935;BME280;5006;41.828;23.478;2023-04-25T01:06:49;89604.66;;;13.81;100.00
9935;BME280;5006;41.828;23.478;2023-04-25T01:07:56;89613.31;;;13.88;100.00
9935;BME280;5006;41.828;23.478;2023-04-25T01:09:02;89607.13;;;14.04;100.00
9935;BME280;5006;41.828;23.478;2023-04-25T01:10:11;89618.28;;;13.90;100.00
9935;BME280;5006;41.828;23.478;2023-04-25T01:11:17;89618.63;;;13.44;100.00
9935;BME280;5006;41.828;23.478;2023-04-25T01:12:23;89612.38;;;13.47;100.00
9935;BME280;5006;41.828;23.478;2023-04-25T01:13:29;89625.53;;;13.61;100.00
9935;BME280;5006;41.828;23.478;2023-04-25T01:14:37;89619.13;;;13.87;100.00
9935;BME280;5006;41.828;23.478;2023-04-25T01:15:43;89616.78;;;13.73;100.00
9935;BME280;5006;41.828;23.478;2023-04-25T01:16:50;89614.09;;;13.57;100.00
9935;BME280;5006;41.828;23.478;2023-04-25T01:17:58;89605.00;;;13.67;100.00
9935;BME280;5006;41.828;23.478;2023-04-25T01:19:09;89607.44;;;13.77;100.00
9935;BME280;5006;41.828;23.478;2023-04-25T01:20:15;89605.97;;;13.89;100.00
9935;BME280;5006;41.828;23.478;2023-04-25T01:21:23;89610.34;;;13.99;100.00
9935;BME280;5006;41.828;23.478;2023-04-25T01:22:31;89611.28;;;14.24;100.00
9935;BME280;5006;41.828;23.478;2023-04-25T01:23:38;89605.44;;;14.10;100.00
9935;BME280;5006;41.828;23.478;2023-04-25T01:24:43;89598.06;;;13.98;100.00
9935;BME280;5006;41.828;23.478;2023-04-25T01:25:50;89595.19;;;13.89;100.00
9935;BME280;5006;41.828;23.478;2023-04-25T01:26:56;89603.41;;;14.14;100.00
9935;BME280;5006;41.828;23.478;2023-04-25T01:28:04;89597.38;;;14.67;100.00
9935;BME280;5006;41.828;23.478;2023-04-25T01:29:11;89602.44;;;14.52;100.00
9935;BME280;5006;41.828;23.478;2023-04-25T01:30:18;89594.22;;;14.97;100.00
9935;BME280;5006;41.828;23.478;2023-04-25T01:31:23;89596.50;;;15.11;100.00
9935;BME280;5006;41.828;23.478;2023-04-25T01:32:29;89597.06;;;15.18;100.00
9935;BME280;5006;41.828;23.478;2023-04-25T01:33:43;89598.63;;;14.78;100.00
9935;BME280;5006;41.828;23.478;2023-04-25T01:34:50;89600.94;;;14.35;100.00
9935;BME280;5006;41.828;23.478;2023-04-25T01:35:55;89597.06;;;13.44;100.00
9935;BME280;5006;41.828;23.478;2023-04-25T01:37:03;89599.09;;;13.56;100.00
9935;BME280;5006;41.828;23.478;2023-04-25T01:38:08;89595.19;;;13.89;100.00
9935;BME280;5006;41.828;23.478;2023-04-25T01:39:14;89596.22;;;13.63;100.00
9935;BME280;5006;41.828;23.478;2023-04-25T01:40:21;89590.91;;;13.11;100.00
9935;BME280;5006;41.828;23.478;2023-04-25T01:41:27;89596.41;;;13.72;100.00
9935;BME280;5006;41.828;23.478;2023-04-25T01:42:32;89601.28;;;13.93;100.00
9935;BME280;5006;41.828;23.478;2023-04-25T01:43:39;89601.00;;;14.48;100.00
9935;BME280;5006;41.828;23.478;2023-04-25T01:44:44;89593.56;;;14.23;100.00
9935;BME280;5006;41.828;23.478;2023-04-25T01:45:51;89596.88;;;14.43;100.00
9935;BME280;5006;41.828;23.478;2023-04-25T01:46:57;89599.56;;;13.99;100.00
9935;BME280;5006;41.828;23.478;2023-04-25T01:48:04;89598.50;;;13.80;100.00
9935;BME280;5006;41.828;23.478;2023-04-25T01:49:10;89590.53;;;14.05;100.00
9935;BME280;5006;41.828;23.478;2023-04-25T01:50:18;89604.13;;;13.86;100.00
9935;BME280;5006;41.828;23.478;2023-04-25T01:51:25;89594.38;;;13.76;100.00
9935;BME280;5006;41.828;23.478;2023-04-25T01:52:31;89589.13;;;13.85;100.00
9935;BME280;5006;41.828;23.478;2023-04-25T01:53:38;89592.25;;;13.83;100.00
9935;BME280;5006;41.828;23.478;2023-04-25T01:54:44;89593.44;;;13.66;100.00
9935;BME280;5006;41.828;23.478;2023-04-25T01:55:50;89596.22;;;13.31;100.00
9935;BME280;5006;41.828;23.478;2023-04-25T01:56:59;89596.22;;;13.63;100.00
9935;BME280;5006;41.828;23.478;2023-04-25T01:58:07;89599.91;;;13.37;100.00
9935;BME280;5006;41.828;23.478;2023-04-25T01:59:52;89608.59;;;13.44;100.00
9935;BME280;5006;41.828;23.478;2023-04-25T02:01:17;89600.44;;;13.80;100.00
9935;BME280;5006;41.828;23.478;2023-04-25T02:02:32;89607.00;;;13.47;100.00
9935;BME280;5006;41.828;23.478;2023-04-25T02:03:38;89607.25;;;13.36;100.00
9935;BME280;5006;41.828;23.478;2023-04-25T02:04:48;89602.78;;;13.62;100.00
9935;BME280;5006;41.828;23.478;2023-04-25T02:05:54;89603.63;;;13.59;100.00
9935;BME280;5006;41.828;23.478;2023-04-25T02:06:59;89598.00;;;13.37;100.00
9935;BME280;5006;41.828;23.478;2023-04-25T02:08:17;89605.22;;;13.24;100.00
9935;BME280;5006;41.828;23.478;2023-04-25T02:09:23;89593.53;;;13.47;100.00
9935;BME280;5006;41.828;23.478;2023-04-25T02:10:33;89592.88;;;13.43;100.00
9935;BME280;5006;41.828;23.478;2023-04-25T02:11:52;89590.84;;;13.47;100.00
9935;BME280;5006;41.828;23.478;2023-04-25T02:13:08;89593.13;;;13.64;100.00
9935;BME280;5006;41.828;23.478;2023-04-25T02:14:27;89595.38;;;13.50;100.00
9935;BME280;5006;41.828;23.478;2023-04-25T02:15:56;89585.31;;;13.54;100.00
9935;BME280;5006;41.828;23.478;2023-04-25T02:17:02;89585.63;;;13.72;100.00
9935;BME280;5006;41.828;23.478;2023-04-25T02:18:08;89592.94;;;13.23;100.00
9935;BME280;5006;41.828;23.478;2023-04-25T02:19:15;89595.72;;;13.52;100.00
9935;BME280;5006;41.828;23.478;2023-04-25T02:20:21;89593.78;;;13.52;100.00
9935;BME280;5006;41.828;23.478;2023-04-25T02:21:28;89589.19;;;13.97;100.00
9935;BME280;5006;41.828;23.478;2023-04-25T02:22:33;89585.56;;;14.20;100.00
9935;BME280;5006;41.828;23.478;2023-04-25T02:23:41;89589.97;;;14.42;100.00
9935;BME280;5006;41.828;23.478;2023-04-25T02:24:47;89585.44;;;14.39;100.00
9935;BME280;5006;41.828;23.478;2023-04-25T02:25:52;89581.84;;;14.14;100.00
9935;BME280;5006;41.828;23.478;2023-04-25T02:27:00;89587.56;;;14.32;100.00
9935;BME280;5006;41.828;23.478;2023-04-25T02:28:07;89570.78;;;14.40;100.00
9935;BME280;5006;41.828;23.478;2023-04-25T02:29:12;89575.31;;;14.56;100.00
9935;BME280;5006;41.828;23.478;2023-04-25T02:30:20;89573.56;;;14.78;100.00
9935;BME280;5006;41.828;23.478;2023-04-25T02:31:26;89567.28;;;14.81;100.00
9935;BME280;5006;41.828;23.478;2023-04-25T02:32:32;89571.84;;;14.84;100.00
9935;BME280;5006;41.828;23.478;2023-04-25T02:33:38;89566.06;;;14.57;100.00
9935;BME280;5006;41.828;23.478;2023-04-25T02:34:45;89561.66;;;14.63;100.00
9935;BME280;5006;41.828;23.478;2023-04-25T02:35:50;89563.47;;;14.25;100.00
9935;BME280;5006;41.828;23.478;2023-04-25T02:36:55;89565.44;;;14.65;100.00
9935;BME280;5006;41.828;23.478;2023-04-25T02:38:01;89561.50;;;14.95;100.00
9935;BME280;5006;41.828;23.478;2023-04-25T02:39:08;89560.19;;;14.87;100.00
9935;BME280;5006;41.828;23.478;2023-04-25T02:40:14;89564.94;;;14.83;100.00
9935;BME280;5006;41.828;23.478;2023-04-25T02:41:20;89567.19;;;14.72;100.00
9935;BME280;5006;41.828;23.478;2023-04-25T02:42:26;89563.94;;;14.36;100.00
9935;BME280;5006;41.828;23.478;2023-04-25T02:43:33;89568.66;;;14.60;100.00
9935;BME280;5006;41.828;23.478;2023-04-25T02:44:38;89569.38;;;14.48;100.00
9935;BME280;5006;41.828;23.478;2023-04-25T02:45:43;89562.97;;;14.71;100.00
9935;BME280;5006;41.828;23.478;2023-04-25T02:46:50;89554.66;;;14.78;100.00
9935;BME280;5006;41.828;23.478;2023-04-25T02:47:56;89555.06;;;14.64;100.00
9935;BME280;5006;41.828;23.478;2023-04-25T02:49:02;89557.97;;;14.57;100.00
9935;BME280;5006;41.828;23.478;2023-04-25T02:50:09;89555.47;;;14.62;100.00
9935;BME280;5006;41.828;23.478;2023-04-25T02:51:16;89546.41;;;14.44;100.00
9935;BME280;5006;41.828;23.478;2023-04-25T02:52:22;89549.47;;;14.71;100.00
9935;BME280;5006;41.828;23.478;2023-04-25T02:53:36;89550.94;;;14.47;100.00
9935;BME280;5006;41.828;23.478;2023-04-25T02:54:43;89559.50;;;14.29;100.00
9935;BME280;5006;41.828;23.478;2023-04-25T02:55:48;89558.97;;;13.90;100.00
9935;BME280;5006;41.828;23.478;2023-04-25T02:56:53;89559.59;;;13.17;100.00
9935;BME280;5006;41.828;23.478;2023-04-25T02:58:05;89561.19;;;13.15;100.00
9935;BME280;5006;41.828;23.478;2023-04-25T02:59:26;89554.81;;;13.25;100.00
9935;BME280;5006;41.828;23.478;2023-04-25T03:00:32;89549.53;;;13.98;100.00
9935;BME280;5006;41.828;23.478;2023-04-25T03:01:38;89560.00;;;13.96;100.00
9935;BME280;5006;41.828;23.478;2023-04-25T03:02:42;89549.69;;;14.07;100.00
9935;BME280;5006;41.828;23.478;2023-04-25T03:03:49;89549.34;;;13.44;100.00
9935;BME280;5006;41.828;23.478;2023-04-25T03:04:54;89553.03;;;13.18;100.00
9935;BME280;5006;41.828;23.478;2023-04-25T03:05:59;89556.06;;;13.20;100.00
9935;BME280;5006;41.828;23.478;2023-04-25T03:07:10;89548.81;;;13.01;100.00
9935;BME280;5006;41.828;23.478;2023-04-25T03:08:16;89543.88;;;13.16;100.00
9935;BME280;5006;41.828;23.478;2023-04-25T03:09:22;89551.78;;;13.23;100.00
9935;BME280;5006;41.828;23.478;2023-04-25T03:10:31;89544.97;;;13.34;100.00
9935;BME280;5006;41.828;23.478;2023-04-25T03:11:43;89539.50;;;13.38;100.00
9935;BME280;5006;41.828;23.478;2023-04-25T03:12:50;89552.81;;;13.29;100.00
9935;BME280;5006;41.828;23.478;2023-04-25T03:13:55;89547.75;;;13.47;100.00
9935;BME280;5006;41.828;23.478;2023-04-25T03:15:00;89550.34;;;13.34;100.00
9935;BME280;5006;41.828;23.478;2023-04-25T03:16:06;89556.25;;;13.13;100.00
9935;BME280;5006;41.828;23.478;2023-04-25T03:17:12;89558.09;;;13.16;100.00
9935;BME280;5006;41.828;23.478;2023-04-25T03:18:18;89554.13;;;13.05;100.00
9935;BME280;5006;41.828;23.478;2023-04-25T03:19:23;89554.97;;;13.50;100.00
9935;BME280;5006;41.828;23.478;2023-04-25T03:20:29;89563.66;;;13.09;100.00
9935;BME280;5006;41.828;23.478;2023-04-25T03:21:36;89562.47;;;13.10;100.00
9935;BME280;5006;41.828;23.478;2023-04-25T03:22:41;89564.91;;;13.37;100.00
9935;BME280;5006;41.828;23.478;2023-04-25T03:23:46;89560.88;;;13.61;100.00
9935;BME280;5006;41.828;23.478;2023-04-25T03:24:52;89559.53;;;13.69;100.00
9935;BME280;5006;41.828;23.478;2023-04-25T03:26:00;89559.75;;;13.58;100.00
9935;BME280;5006;41.828;23.478;2023-04-25T03:27:05;89560.09;;;13.76;100.00
9935;BME280;5006;41.828;23.478;2023-04-25T03:28:12;89558.09;;;13.64;100.00
9935;BME280;5006;41.828;23.478;2023-04-25T03:29:17;89552.13;;;14.17;100.00
9935;BME280;5006;41.828;23.478;2023-04-25T03:30:22;89558.28;;;14.02;100.00
9935;BME280;5006;41.828;23.478;2023-04-25T03:31:29;89559.38;;;14.04;100.00
9935;BME280;5006;41.828;23.478;2023-04-25T03:32:35;89560.56;;;14.03;100.00
9935;BME280;5006;41.828;23.478;2023-04-25T03:33:41;89553.81;;;14.11;100.00
9935;BME280;5006;41.828;23.478;2023-04-25T03:34:46;89553.59;;;13.90;100.00
9935;BME280;5006;41.828;23.478;2023-04-25T03:35:53;89553.41;;;13.97;100.00
9935;BME280;5006;41.828;23.478;2023-04-25T03:36:58;89555.38;;;14.25;100.00
9935;BME280;5006;41.828;23.478;2023-04-25T03:38:05;89557.38;;;14.37;100.00
9935;BME280;5006;41.828;23.478;2023-04-25T03:39:15;89561.63;;;14.22;100.00
9935;BME280;5006;41.828;23.478;2023-04-25T03:40:25;89561.34;;;14.32;100.00
9935;BME280;5006;41.828;23.478;2023-04-25T03:41:48;89559.66;;;14.38;100.00
9935;BME280;5006;41.828;23.478;2023-04-25T03:42:57;89563.31;;;14.44;100.00
9935;BME280;5006;41.828;23.478;2023-04-25T03:44:03;89555.78;;;13.95;100.00
9935;BME280;5006;41.828;23.478;2023-04-25T03:45:09;89560.88;;;14.05;100.00
9935;BME280;5006;41.828;23.478;2023-04-25T03:46:15;89560.81;;;13.48;100.00
9935;BME280;5006;41.828;23.478;2023-04-25T03:47:20;89561.06;;;13.98;100.00
9935;BME280;5006;41.828;23.478;2023-04-25T03:48:28;89562.09;;;13.88;100.00
9935;BME280;5006;41.828;23.478;2023-04-25T03:49:34;89555.28;;;14.28;100.00
9935;BME280;5006;41.828;23.478;2023-04-25T03:50:42;89557.28;;;13.96;100.00
9935;BME280;5006;41.828;23.478;2023-04-25T03:51:46;89567.31;;;13.95;100.00
9935;BME280;5006;41.828;23.478;2023-04-25T03:52:53;89562.09;;;13.88;100.00
9935;BME280;5006;41.828;23.478;2023-04-25T03:53:58;89563.72;;;13.86;100.00
9935;BME280;5006;41.828;23.478;2023-04-25T03:55:10;89570.06;;;14.08;100.00
9935;BME280;5006;41.828;23.478;2023-04-25T03:56:16;89562.91;;;14.17;100.00
9935;BME280;5006;41.828;23.478;2023-04-25T03:57:26;89551.78;;;14.85;100.00
9935;BME280;5006;41.828;23.478;2023-04-25T03:58:32;89559.59;;;14.54;100.00
9935;BME280;5006;41.828;23.478;2023-04-25T03:59:38;89553.50;;;14.38;100.00
9935;BME280;5006;41.828;23.478;2023-04-25T04:00:43;89563.25;;;14.48;100.00
9935;BME280;5006;41.828;23.478;2023-04-25T04:01:49;89558.94;;;14.50;100.00
9935;BME280;5006;41.828;23.478;2023-04-25T04:02:55;89565.72;;;14.55;100.00
9935;BME280;5006;41.828;23.478;2023-04-25T04:04:01;89564.94;;;14.83;100.00
9935;BME280;5006;41.828;23.478;2023-04-25T04:05:07;89559.41;;;14.74;100.00
9935;BME280;5006;41.828;23.478;2023-04-25T04:06:17;89564.09;;;14.86;100.00
9935;BME280;5006;41.828;23.478;2023-04-25T04:07:28;89561.16;;;14.80;100.00
9935;BME280;5006;41.828;23.478;2023-04-25T04:08:36;89566.41;;;14.59;100.00
9935;BME280;5006;41.828;23.478;2023-04-25T04:09:41;89562.28;;;14.67;100.00
9935;BME280;5006;41.828;23.478;2023-04-25T04:10:51;89565.41;;;14.53;100.00
9935;BME280;5006;41.828;23.478;2023-04-25T04:11:57;89565.47;;;14.37;100.00
9935;BME280;5006;41.828;23.478;2023-04-25T04:13:04;89566.94;;;14.09;100.00
9935;BME280;5006;41.828;23.478;2023-04-25T04:14:11;89576.19;;;13.80;100.00
9935;BME280;5006;41.828;23.478;2023-04-25T04:15:19;89569.13;;;13.70;100.00
9935;BME280;5006;41.828;23.478;2023-04-25T04:16:27;89568.88;;;13.64;100.00
9935;BME280;5006;41.828;23.478;2023-04-25T04:17:32;89567.16;;;13.70;100.00
9935;BME280;5006;41.828;23.478;2023-04-25T04:18:39;89568.69;;;13.71;100.00
9935;BME280;5006;41.828;23.478;2023-04-25T04:19:44;89565.69;;;13.98;100.00
9935;BME280;5006;41.828;23.478;2023-04-25T04:20:55;89567.53;;;14.17;100.00
9935;BME280;5006;41.828;23.478;2023-04-25T04:22:02;89563.56;;;14.50;100.00
9935;BME280;5006;41.828;23.478;2023-04-25T04:23:10;89561.03;;;14.71;100.00
9935;BME280;5006;41.828;23.478;2023-04-25T04:24:15;89567.25;;;15.21;100.00
9935;BME280;5006;41.828;23.478;2023-04-25T04:25:36;89562.97;;;14.71;100.00
9935;BME280;5006;41.828;23.478;2023-04-25T04:26:47;89579.25;;;14.67;100.00
9935;BME280;5006;41.828;23.478;2023-04-25T04:28:23;89575.13;;;14.50;100.00
9935;BME280;5006;41.828;23.478;2023-04-25T04:29:34;89564.50;;;14.84;100.00
9935;BME280;5006;41.828;23.478;2023-04-25T04:30:54;89574.69;;;14.52;100.00
9935;BME280;5006;41.828;23.478;2023-04-25T04:32:00;89574.69;;;14.07;100.00
9935;BME280;5006;41.828;23.478;2023-04-25T04:33:08;89568.97;;;13.29;100.00
9935;BME280;5006;41.828;23.478;2023-04-25T04:34:13;89566.50;;;13.18;100.00
9935;BME280;5006;41.828;23.478;2023-04-25T04:35:21;89574.09;;;13.23;100.00
9935;BME280;5006;41.828;23.478;2023-04-25T04:36:27;89575.09;;;13.13;100.00
9935;BME280;5006;41.828;23.478;2023-04-25T04:37:35;89563.13;;;13.14;100.00
9935;BME280;5006;41.828;23.478;2023-04-25T04:38:42;89572.47;;;12.75;100.00
9935;BME280;5006;41.828;23.478;2023-04-25T04:39:55;89565.63;;;12.70;100.00
9935;BME280;5006;41.828;23.478;2023-04-25T04:41:05;89565.25;;;13.39;100.00
9935;BME280;5006;41.828;23.478;2023-04-25T04:42:34;89572.66;;;13.67;100.00
9935;BME280;5006;41.828;23.478;2023-04-25T04:43:50;89572.31;;;14.09;100.00
9935;BME280;5006;41.828;23.478;2023-04-25T04:45:21;89571.09;;;13.98;100.00
9935;BME280;5006;41.828;23.478;2023-04-25T04:46:46;89571.34;;;14.03;100.00
9935;BME280;5006;41.828;23.478;2023-04-25T04:48:05;89580.81;;;13.79;100.00
9935;BME280;5006;41.828;23.478;2023-04-25T04:49:20;89572.56;;;13.54;100.00
9935;BME280;5006;41.828;23.478;2023-04-25T04:50:58;89572.41;;;13.61;100.00
9935;BME280;5006;41.828;23.478;2023-04-25T04:52:24;89571.81;;;13.70;100.00
9935;BME280;5006;41.828;23.478;2023-04-25T04:53:53;89565.06;;;13.62;100.00
9935;BME280;5006;41.828;23.478;2023-04-25T04:55:29;89569.41;;;13.88;100.00
9935;BME280;5006;41.828;23.478;2023-04-25T04:57:03;89566.00;;;14.85;100.00
9935;BME280;5006;41.828;23.478;2023-04-25T04:58:28;89573.16;;;14.92;100.00
9935;BME280;5006;41.828;23.478;2023-04-25T05:00:08;89565.75;;;15.20;100.00
9935;BME280;5006;41.828;23.478;2023-04-25T05:01:34;89563.38;;;15.47;100.00
9935;BME280;5006;41.828;23.478;2023-04-25T05:03:02;89574.69;;;15.17;100.00
9935;BME280;5006;41.828;23.478;2023-04-25T05:04:29;89564.94;;;14.83;100.00
9935;BME280;5006;41.828;23.478;2023-04-25T05:05:55;89564.09;;;14.86;100.00
9935;BME280;5006;41.828;23.478;2023-04-25T05:07:19;89561.31;;;14.61;100.00
9935;BME280;5006;41.828;23.478;2023-04-25T05:08:48;89573.50;;;14.53;100.00
9935;BME280;5006;41.828;23.478;2023-04-25T05:10:00;89574.31;;;14.78;100.00
9935;BME280;5006;41.828;23.478;2023-04-25T05:11:11;89563.63;;;14.75;100.00
9935;BME280;5006;41.828;23.478;2023-04-25T05:12:36;89569.66;;;14.79;100.00
9935;BME280;5006;41.828;23.478;2023-04-25T05:14:11;89567.44;;;15.14;100.00
9935;BME280;5006;41.828;23.478;2023-04-25T05:15:29;89569.84;;;15.50;100.00
9935;BME280;5006;41.828;23.478;2023-04-25T05:16:54;89562.50;;;15.38;100.00
9935;BME280;5006;41.828;23.478;2023-04-25T05:18:16;89563.03;;;15.20;100.00
9935;BME280;5006;41.828;23.478;2023-04-25T05:19:42;89569.31;;;14.64;100.00
9935;BME280;5006;41.828;23.478;2023-04-25T05:21:10;89565.84;;;15.54;100.00
9935;BME280;5006;41.828;23.478;2023-04-25T05:22:40;89565.44;;;15.31;100.00
9935;BME280;5006;41.828;23.478;2023-04-25T05:23:57;89559.94;;;15.34;100.00
9935;BME280;5006;41.828;23.478;2023-04-25T05:25:22;89565.94;;;15.51;100.00
9935;BME280;5006;41.828;23.478;2023-04-25T05:26:36;89556.66;;;15.64;100.00
9935;BME280;5006;41.828;23.478;2023-04-25T05:28:01;89558.97;;;16.00;100.00
9935;BME280;5006;41.828;23.478;2023-04-25T05:29:19;89555.03;;;15.67;100.00
9935;BME280;5006;41.828;23.478;2023-04-25T05:31:01;89552.34;;;15.67;100.00
9935;BME280;5006;41.828;23.478;2023-04-25T05:32:11;89555.03;;;15.54;100.00
9935;BME280;5006;41.828;23.478;2023-04-25T05:33:17;89545.50;;;15.25;100.00
9935;BME280;5006;41.828;23.478;2023-04-25T05:34:23;89552.88;;;15.24;100.00
9935;BME280;5006;41.828;23.478;2023-04-25T05:35:38;89549.66;;;15.29;100.00
9935;BME280;5006;41.828;23.478;2023-04-25T05:36:43;89544.38;;;15.38;100.00
9935;BME280;5006;41.828;23.478;2023-04-25T05:37:53;89540.72;;;15.32;100.00
9935;BME280;5006;41.828;23.478;2023-04-25T05:39:10;89546.97;;;15.42;100.00
9935;BME280;5006;41.828;23.478;2023-04-25T05:40:34;89544.44;;;16.06;99.96
9935;BME280;5006;41.828;23.478;2023-04-25T05:42:03;89541.66;;;16.31;98.29
9935;BME280;5006;41.828;23.478;2023-04-25T05:43:33;89542.03;;;16.21;97.28
9935;BME280;5006;41.828;23.478;2023-04-25T05:44:54;89547.88;;;16.19;96.95
9935;BME280;5006;41.828;23.478;2023-04-25T05:46:22;89548.72;;;15.95;96.41
9935;BME280;5006;41.828;23.478;2023-04-25T05:47:52;89549.00;;;15.50;99.01
9935;BME280;5006;41.828;23.478;2023-04-25T05:49:05;89549.16;;;14.69;100.00
9935;BME280;5006;41.828;23.478;2023-04-25T05:50:21;89558.34;;;14.14;100.00
9935;BME280;5006;41.828;23.478;2023-04-25T05:51:38;89555.50;;;14.05;100.00
9935;BME280;5006;41.828;23.478;2023-04-25T05:53:09;89554.72;;;14.21;100.00
9935;BME280;5006;41.828;23.478;2023-04-25T05:54:21;89556.34;;;14.02;100.00
9935;BME280;5006;41.828;23.478;2023-04-25T05:55:26;89559.78;;;13.74;100.00
9935;BME280;5006;41.828;23.478;2023-04-25T05:56:32;89550.25;;;13.70;100.00
9935;BME280;5006;41.828;23.478;2023-04-25T05:57:38;89547.84;;;14.32;100.00
9935;BME280;5006;41.828;23.478;2023-04-25T05:58:46;89557.38;;;14.37;100.00
9935;BME280;5006;41.828;23.478;2023-04-25T05:59:53;89551.53;;;14.79;100.00
9935;BME280;5006;41.828;23.478;2023-04-25T06:00:59;89549.63;;;15.05;100.00
9935;BME280;5006;41.828;23.478;2023-04-25T06:02:06;89554.19;;;15.45;100.00
9935;BME280;5006;41.828;23.478;2023-04-25T06:03:13;89546.75;;;15.95;100.00
9935;BME280;5006;41.828;23.478;2023-04-25T06:04:20;89542.22;;;16.60;100.00
9935;BME280;5006;41.828;23.478;2023-04-25T06:05:24;89539.03;;;16.83;100.00
9935;BME280;5006;41.828;23.478;2023-04-25T06:06:31;89539.25;;;17.19;100.00
9935;BME280;5006;41.828;23.478;2023-04-25T06:07:38;89540.81;;;17.59;100.00
9935;BME280;5006;41.828;23.478;2023-04-25T06:08:43;89540.22;;;18.31;92.22
9935;BME280;5006;41.828;23.478;2023-04-25T06:09:49;89537.50;;;17.34;95.80
9935;BME280;5006;41.828;23.478;2023-04-25T06:10:56;89534.50;;;16.80;100.00